createdAt,value
2018-12-03T00:01:32.461Z,89.70
2018-12-03T00:04:07.285Z,89.80
2018-12-03T00:06:35.945Z,90.00
2018-12-03T00:09:07.329Z,90.00
2018-12-03T00:11:36.372Z,89.80
2018-12-03T00:14:05.108Z,89.50
2018-12-03T00:16:33.954Z,90.00
2018-12-03T00:19:02.638Z,89.90
2018-12-03T00:21:31.365Z,89.90
2018-12-03T00:24:00.115Z,90.40
2018-12-03T00:26:28.856Z,90.00
2018-12-03T00:28:57.684Z,89.70
2018-12-03T00:31:26.433Z,89.80
2018-12-03T00:33:55.156Z,89.80
2018-12-03T00:36:23.876Z,89.70
2018-12-03T00:38:52.608Z,89.90
2018-12-03T00:41:21.322Z,89.50
2018-12-03T00:43:50.032Z,89.80
2018-12-03T00:46:18.730Z,89.70
2018-12-03T00:48:47.424Z,89.60
2018-12-03T00:51:16.156Z,89.80
2018-12-03T00:53:45.608Z,89.70
2018-12-03T00:56:14.413Z,89.40
2018-12-03T00:58:43.108Z,89.40
2018-12-03T01:01:11.821Z,89.20
2018-12-03T01:03:40.520Z,89.00
2018-12-03T01:06:09.280Z,89.00
2018-12-03T01:08:38.020Z,89.00
2018-12-03T01:11:06.712Z,89.10
2018-12-03T01:13:35.538Z,88.90
2018-12-03T01:16:04.240Z,88.80
2018-12-03T01:18:32.947Z,89.10
2018-12-03T01:21:01.670Z,89.10
2018-12-03T01:23:30.381Z,89.10
2018-12-03T01:25:59.104Z,89.10
2018-12-03T01:28:27.809Z,89.20
2018-12-03T01:30:56.805Z,89.20
2018-12-03T01:33:25.508Z,89.40
2018-12-03T01:35:54.225Z,89.20
2018-12-03T01:38:22.926Z,89.30
2018-12-03T01:40:51.638Z,89.40
2018-12-03T01:43:20.340Z,89.40
2018-12-03T01:45:49.041Z,89.40
2018-12-03T01:48:17.885Z,89.40
2018-12-03T01:50:46.577Z,89.20
2018-12-03T01:53:15.954Z,89.40
2018-12-03T01:55:44.656Z,89.30
2018-12-03T01:58:13.370Z,89.10
2018-12-03T02:00:42.079Z,89.00
2018-12-03T02:03:10.775Z,89.10
2018-12-03T02:05:39.588Z,88.90
2018-12-03T02:08:08.296Z,88.90
2018-12-03T02:10:37.022Z,89.80
2018-12-03T02:13:05.889Z,89.10
2018-12-03T02:15:34.601Z,89.00
2018-12-03T02:18:03.326Z,89.10
2018-12-03T02:20:32.053Z,89.10
2018-12-03T02:23:00.785Z,89.00
2018-12-03T02:25:29.553Z,88.90
2018-12-03T02:27:58.328Z,88.70
2018-12-03T02:30:27.089Z,88.70
2018-12-03T02:32:55.808Z,88.50
2018-12-03T02:35:24.535Z,88.70
2018-12-03T02:37:53.230Z,88.60
2018-12-03T02:40:21.951Z,88.50
2018-12-03T02:42:50.648Z,89.50
2018-12-03T02:45:19.340Z,88.60
2018-12-03T02:47:48.056Z,89.40
2018-12-03T02:50:16.812Z,88.90
2018-12-03T02:52:46.294Z,89.00
2018-12-03T02:55:15.157Z,88.90
2018-12-03T02:57:43.863Z,88.80
2018-12-03T03:00:13.518Z,89.30
2018-12-03T03:02:42.786Z,88.60
2018-12-03T03:05:12.609Z,88.70
2018-12-03T03:07:41.493Z,88.70
2018-12-03T03:10:12.348Z,88.90
2018-12-03T03:12:41.054Z,89.00
2018-12-03T03:15:11.866Z,89.20
2018-12-03T03:17:40.606Z,89.10
2018-12-03T03:20:10.462Z,89.10
2018-12-03T03:22:39.200Z,88.90
2018-12-03T03:25:08.906Z,88.80
2018-12-03T03:27:37.929Z,88.90
2018-12-03T03:30:13.582Z,89.00
2018-12-03T03:32:42.618Z,88.80
2018-12-03T03:35:12.179Z,88.90
2018-12-03T03:37:40.881Z,89.10
2018-12-03T03:40:12.155Z,89.80
2018-12-03T03:42:41.042Z,89.20
2018-12-03T03:45:14.287Z,89.20
2018-12-03T03:47:42.995Z,89.20
2018-12-03T03:50:12.534Z,89.20
2018-12-03T03:52:41.238Z,89.90
2018-12-03T03:55:10.308Z,90.10
2018-12-03T03:57:39.015Z,90.00
2018-12-03T04:00:09.893Z,90.10
2018-12-03T04:02:38.771Z,90.10
2018-12-03T04:05:09.058Z,90.20
2018-12-03T04:07:37.770Z,90.20
2018-12-03T04:10:08.893Z,90.30
2018-12-03T04:12:37.598Z,90.50
2018-12-03T04:15:08.329Z,90.50
2018-12-03T04:17:37.052Z,90.50
2018-12-03T04:20:09.175Z,90.50
2018-12-03T04:22:37.895Z,90.60
2018-12-03T04:25:07.855Z,90.50
2018-12-03T04:27:36.590Z,90.50
2018-12-03T04:30:09.451Z,90.40
2018-12-03T04:32:38.209Z,90.50
2018-12-03T04:35:07.424Z,90.40
2018-12-03T04:37:36.148Z,90.40
2018-12-03T04:40:07.077Z,90.40
2018-12-03T04:42:35.870Z,90.30
2018-12-03T04:45:08.261Z,90.50
2018-12-03T04:47:37.125Z,90.60
2018-12-03T04:50:10.048Z,90.50
2018-12-03T04:52:38.705Z,90.40
2018-12-03T04:55:07.454Z,90.40
2018-12-03T04:57:36.205Z,90.50
2018-12-03T05:00:08.526Z,90.40
2018-12-03T05:02:37.260Z,90.50
2018-12-03T05:05:06.921Z,90.60
2018-12-03T05:07:35.658Z,90.60
2018-12-03T05:10:07.584Z,90.60
2018-12-03T05:12:36.244Z,90.60
2018-12-03T05:15:06.899Z,90.60
2018-12-03T05:17:35.720Z,90.60
2018-12-03T05:20:05.401Z,90.60
2018-12-03T05:22:34.106Z,90.70
2018-12-03T05:25:02.776Z,90.60
2018-12-03T05:27:31.487Z,90.60
2018-12-03T05:30:00.205Z,90.50
2018-12-03T05:32:28.875Z,90.60
2018-12-03T05:34:57.623Z,90.40
2018-12-03T05:37:26.294Z,90.30
2018-12-03T05:39:54.953Z,90.30
2018-12-03T05:42:23.643Z,90.40
2018-12-03T05:44:52.309Z,90.40
2018-12-03T05:47:20.978Z,90.40
2018-12-03T05:49:49.645Z,90.60
2018-12-03T05:52:18.391Z,90.60
2018-12-03T05:54:47.196Z,90.40
2018-12-03T05:57:15.856Z,90.50
2018-12-03T05:59:44.527Z,90.50
2018-12-03T06:02:13.189Z,90.40
2018-12-03T06:04:41.902Z,90.40
2018-12-03T06:07:10.599Z,90.30
2018-12-03T06:09:39.354Z,90.30
2018-12-03T06:12:08.016Z,90.40
2018-12-03T06:14:36.690Z,90.30
2018-12-03T06:17:05.552Z,90.70
2018-12-03T06:19:34.219Z,90.30
2018-12-03T06:22:02.927Z,90.40
2018-12-03T06:24:31.655Z,90.40
2018-12-03T06:27:00.350Z,90.40
2018-12-03T06:29:29.049Z,90.30
2018-12-03T06:31:57.809Z,90.30
2018-12-03T06:34:26.592Z,90.30
2018-12-03T06:36:55.308Z,90.30
2018-12-03T06:39:24.048Z,90.20
2018-12-03T06:41:52.791Z,90.20
2018-12-03T06:44:21.858Z,90.20
2018-12-03T06:46:50.527Z,90.20
2018-12-03T06:49:19.309Z,90.30
2018-12-03T06:51:48.017Z,90.40
2018-12-03T06:54:17.635Z,90.40
2018-12-03T06:56:46.361Z,90.40
2018-12-03T06:59:15.077Z,90.40
2018-12-03T07:01:43.769Z,90.40
2018-12-03T07:04:12.431Z,90.40
2018-12-03T07:06:41.141Z,90.60
2018-12-03T07:09:11.330Z,90.60
2018-12-03T07:11:40.064Z,90.60
2018-12-03T07:14:08.717Z,90.50
2018-12-03T07:16:37.382Z,90.60
2018-12-03T07:19:06.414Z,90.60
2018-12-03T07:21:35.102Z,90.90
2018-12-03T07:24:03.817Z,90.70
2018-12-03T07:26:32.540Z,90.60
2018-12-03T07:29:01.228Z,90.60
2018-12-03T07:31:29.949Z,90.20
2018-12-03T07:34:03.279Z,89.40
2018-12-03T07:36:27.345Z,89.80
2018-12-03T07:38:56.030Z,90.10
2018-12-03T07:41:24.730Z,90.10
2018-12-03T07:43:53.425Z,90.20
2018-12-03T07:46:22.116Z,90.20
2018-12-03T07:48:50.805Z,90.10
2018-12-03T07:51:19.501Z,90.20
2018-12-03T07:53:48.210Z,90.20
2018-12-03T07:56:16.931Z,90.20
2018-12-03T07:58:45.616Z,90.40
2018-12-03T08:01:14.325Z,90.40
2018-12-03T08:03:43.008Z,90.30
2018-12-03T08:06:11.774Z,90.40
2018-12-03T08:08:40.589Z,90.40
2018-12-03T08:11:09.299Z,90.40
2018-12-03T08:13:38.004Z,90.30
2018-12-03T08:16:06.708Z,90.10
2018-12-03T08:18:35.427Z,90.10
2018-12-03T08:21:06.585Z,90.00
2018-12-03T08:23:43.526Z,90.00
2018-12-03T08:26:12.446Z,90.00
2018-12-03T08:28:41.113Z,89.70
2018-12-03T08:31:09.782Z,89.20
2018-12-03T08:33:38.450Z,89.50
2018-12-03T08:36:07.833Z,89.40
2018-12-03T08:38:36.963Z,89.70
2018-12-03T08:41:06.650Z,89.30
2018-12-03T08:43:35.414Z,89.30
2018-12-03T08:46:05.971Z,89.30
2018-12-03T08:48:36.458Z,89.60
2018-12-03T08:51:05.638Z,89.70
2018-12-03T08:53:34.300Z,89.20
2018-12-03T08:56:02.965Z,89.50
2018-12-03T08:58:31.747Z,89.00
2018-12-03T09:01:00.657Z,89.10
2018-12-03T09:03:30.433Z,88.90
2018-12-03T09:06:04.821Z,89.00
2018-12-03T09:08:33.541Z,89.20
2018-12-03T09:11:02.397Z,88.80
2018-12-03T09:13:31.128Z,89.00
2018-12-03T09:16:01.162Z,88.80
2018-12-03T09:18:33.709Z,88.40
2018-12-03T09:21:02.868Z,88.70
2018-12-03T09:23:31.597Z,88.90
2018-12-03T09:26:00.306Z,88.90
2018-12-03T09:28:29.010Z,88.90
2018-12-03T09:30:57.966Z,88.80
2018-12-03T09:33:26.448Z,89.10
2018-12-03T09:35:55.186Z,89.30
2018-12-03T09:38:23.923Z,89.10
2018-12-03T09:40:57.735Z,88.70
2018-12-03T09:43:27.163Z,88.40
2018-12-03T09:45:56.005Z,88.60
2018-12-03T09:48:24.697Z,88.60
2018-12-03T09:50:53.410Z,88.60
2018-12-03T09:53:22.096Z,88.20
2018-12-03T09:55:51.245Z,88.70
2018-12-03T09:58:22.472Z,88.20
2018-12-03T10:00:51.240Z,88.00
2018-12-03T10:03:23.278Z,87.80
2018-12-03T10:05:57.672Z,88.10
2018-12-03T10:08:30.632Z,87.60
2018-12-03T10:11:00.616Z,87.80
2018-12-03T10:13:30.256Z,87.60
2018-12-03T10:15:58.957Z,87.60
2018-12-03T10:18:27.654Z,86.50
2018-12-03T10:20:59.725Z,87.50
2018-12-03T10:23:28.483Z,85.90
2018-12-03T10:25:58.657Z,86.90
2018-12-03T10:28:27.807Z,85.40
2018-12-03T10:30:57.414Z,86.20
2018-12-03T10:33:29.805Z,86.00
2018-12-03T10:35:59.485Z,85.00
2018-12-03T10:38:32.450Z,85.50
2018-12-03T10:41:07.226Z,86.00
2018-12-03T10:43:35.929Z,85.80
2018-12-03T10:46:04.641Z,84.80
2018-12-03T10:48:33.383Z,83.00
2018-12-03T10:51:02.110Z,83.30
2018-12-03T10:53:31.733Z,84.40
2018-12-03T10:56:00.414Z,83.00
2018-12-03T10:58:34.350Z,84.40
2018-12-03T11:01:12.199Z,82.70
2018-12-03T11:03:46.397Z,84.10
2018-12-03T11:06:16.012Z,83.10
2018-12-03T11:08:45.193Z,83.00
2018-12-03T11:11:14.055Z,83.90
2018-12-03T11:13:42.771Z,84.10
2018-12-03T11:16:31.657Z,83.10
2018-12-03T11:19:00.417Z,84.30
2018-12-03T11:21:29.147Z,82.00
2018-12-03T11:23:57.852Z,83.00
2018-12-03T11:26:30.821Z,84.00
2018-12-03T11:28:59.575Z,83.10
2018-12-03T11:31:29.775Z,83.00
2018-12-03T11:33:58.485Z,83.10
2018-12-03T11:36:33.565Z,82.40
2018-12-03T11:39:11.213Z,82.70
2018-12-03T11:41:39.924Z,83.00
2018-12-03T11:44:08.637Z,83.60
2018-12-03T11:46:37.324Z,83.60
2018-12-03T11:49:06.978Z,83.30
2018-12-03T11:51:35.805Z,83.00
2018-12-03T11:54:04.517Z,83.40
2018-12-03T11:56:33.265Z,83.40
2018-12-03T11:59:03.155Z,83.80
2018-12-03T12:01:30.760Z,83.80
2018-12-03T12:03:59.460Z,83.20
2018-12-03T12:06:28.144Z,83.80
2018-12-03T12:08:56.883Z,84.40
2018-12-03T12:11:25.590Z,84.20
2018-12-03T12:13:54.292Z,84.20
2018-12-03T12:16:23.002Z,84.10
2018-12-03T12:18:51.697Z,84.30
2018-12-03T12:21:21.313Z,84.00
2018-12-03T12:23:49.993Z,83.60
2018-12-03T12:26:18.673Z,83.80
2018-12-03T12:28:47.370Z,83.70
2018-12-03T12:31:16.036Z,83.90
2018-12-03T12:33:44.735Z,84.60
2018-12-03T12:36:13.397Z,83.90
2018-12-03T12:38:42.058Z,83.60
2018-12-03T12:41:10.717Z,82.90
2018-12-03T12:43:39.400Z,83.90
2018-12-03T12:46:10.400Z,83.30
2018-12-03T12:48:39.125Z,83.40
2018-12-03T12:51:07.803Z,82.80
2018-12-03T12:53:36.473Z,82.80
2018-12-03T12:56:05.565Z,83.50
2018-12-03T12:58:34.265Z,83.70
2018-12-03T13:01:02.940Z,82.80
2018-12-03T13:03:31.618Z,82.90
2018-12-03T13:06:00.296Z,82.80
2018-12-03T13:08:28.984Z,82.70
2018-12-03T13:10:57.648Z,83.10
2018-12-03T13:13:26.303Z,82.80
2018-12-03T13:15:55.041Z,82.50
2018-12-03T13:18:23.696Z,82.40
2018-12-03T13:20:52.359Z,83.10
2018-12-03T13:23:21.828Z,82.80
2018-12-03T13:25:50.521Z,82.80
2018-12-03T13:28:19.165Z,82.70
2018-12-03T13:30:47.859Z,81.80
2018-12-03T13:33:16.528Z,82.70
2018-12-03T13:35:45.181Z,83.10
2018-12-03T13:38:13.845Z,82.80
2018-12-03T13:40:42.513Z,81.10
2018-12-03T13:43:11.405Z,82.10
2018-12-03T13:45:40.059Z,82.50
2018-12-03T13:48:09.265Z,82.10
2018-12-03T13:50:38.113Z,82.20
2018-12-03T13:53:06.816Z,82.20
2018-12-03T13:55:35.481Z,82.10
2018-12-03T13:58:04.132Z,82.20
2018-12-03T14:00:32.822Z,82.10
2018-12-03T14:03:19.108Z,81.90
2018-12-03T14:05:59.974Z,81.60
2018-12-03T14:08:38.591Z,81.60
2018-12-03T14:11:17.373Z,81.90
2018-12-03T14:14:11.337Z,81.50
2018-12-03T14:16:53.374Z,81.00
2018-12-03T14:19:25.482Z,81.10
2018-12-03T14:22:05.784Z,81.40
2018-12-03T14:24:34.535Z,81.70
2018-12-03T14:27:03.250Z,81.40
2018-12-03T14:29:31.950Z,80.90
2018-12-03T14:32:00.753Z,80.70
2018-12-03T14:34:29.467Z,80.80
2018-12-03T14:36:58.204Z,80.60
2018-12-03T14:39:27.037Z,81.00
2018-12-03T14:41:55.748Z,80.20
2018-12-03T14:44:24.483Z,80.80
2018-12-03T14:46:53.184Z,79.50
2018-12-03T14:49:22.230Z,80.10
2018-12-03T14:51:50.930Z,80.40
2018-12-03T14:54:19.724Z,79.80
2018-12-03T14:56:48.444Z,80.30
2018-12-03T14:59:17.129Z,80.00
2018-12-03T15:01:45.835Z,80.10
2018-12-03T15:04:14.666Z,80.10
2018-12-03T15:06:43.605Z,80.60
2018-12-03T15:09:12.342Z,80.20
2018-12-03T15:11:41.049Z,80.90
2018-12-03T15:14:09.749Z,80.90
2018-12-03T15:16:39.118Z,81.00
2018-12-03T15:19:11.589Z,81.10
2018-12-03T15:21:36.616Z,80.90
2018-12-03T15:24:05.322Z,81.20
2018-12-03T15:26:34.066Z,81.30
2018-12-03T15:29:02.665Z,81.40
2018-12-03T15:31:31.320Z,81.50
2018-12-03T15:33:59.993Z,81.30
2018-12-03T15:36:28.669Z,81.40
2018-12-03T15:38:57.335Z,81.40
2018-12-03T15:41:26.009Z,81.30
2018-12-03T15:43:54.688Z,81.70
2018-12-03T15:46:23.361Z,81.90
2018-12-03T15:48:52.845Z,81.50
2018-12-03T15:51:21.509Z,81.30
2018-12-03T15:53:50.201Z,81.70
2018-12-03T15:56:18.874Z,82.00
2018-12-03T15:58:47.537Z,81.70
2018-12-03T16:01:16.203Z,81.70
2018-12-03T16:03:44.859Z,81.90
2018-12-03T16:06:13.525Z,81.80
2018-12-03T16:08:42.185Z,81.90
2018-12-03T16:11:11.199Z,82.20
2018-12-03T16:13:39.562Z,82.20
2018-12-03T16:16:08.213Z,82.40
2018-12-03T16:18:36.878Z,82.50
2018-12-03T16:21:05.545Z,82.30
2018-12-03T16:23:34.257Z,82.80
2018-12-03T16:26:02.980Z,83.30
2018-12-03T16:28:31.673Z,83.40
2018-12-03T16:31:00.380Z,83.10
2018-12-03T16:33:29.182Z,83.10
2018-12-03T16:35:57.882Z,83.20
2018-12-03T16:38:26.582Z,82.90
2018-12-03T16:40:55.280Z,83.50
2018-12-03T16:43:23.975Z,82.80
2018-12-03T16:45:53.474Z,82.60
2018-12-03T16:48:22.174Z,82.40
2018-12-03T16:50:50.885Z,82.40
2018-12-03T16:53:19.588Z,82.20
2018-12-03T16:55:48.297Z,82.10
2018-12-03T16:58:16.994Z,82.40
2018-12-03T17:00:45.693Z,82.40
2018-12-03T17:03:14.393Z,82.30
2018-12-03T17:05:43.087Z,82.20
2018-12-03T17:08:12.829Z,82.30
2018-12-03T17:10:41.529Z,82.40
2018-12-03T17:13:10.233Z,82.30
2018-12-03T17:15:38.921Z,82.30
2018-12-03T17:18:07.624Z,82.00
2018-12-03T17:20:52.109Z,81.90
2018-12-03T17:23:34.710Z,82.20
2018-12-03T17:26:03.384Z,82.60
2018-12-03T17:28:32.263Z,82.80
2018-12-03T17:31:00.905Z,83.00
2018-12-03T17:33:29.572Z,82.90
2018-12-03T17:35:58.241Z,83.80
2018-12-03T17:38:26.905Z,82.90
2018-12-03T17:40:55.621Z,83.10
2018-12-03T17:43:24.344Z,82.70
2018-12-03T17:45:53.965Z,83.20
2018-12-03T17:48:22.678Z,83.10
2018-12-03T17:50:51.394Z,83.10
2018-12-03T17:53:20.113Z,82.90
2018-12-03T17:55:48.838Z,83.10
2018-12-03T17:58:17.554Z,83.20
2018-12-03T18:00:46.269Z,83.20
2018-12-03T18:03:15.152Z,83.10
2018-12-03T18:05:43.856Z,83.20
2018-12-03T18:08:12.548Z,83.00
2018-12-03T18:10:41.261Z,83.40
2018-12-03T18:13:09.951Z,83.50
2018-12-03T18:15:38.661Z,83.50
2018-12-03T18:18:07.367Z,83.00
2018-12-03T18:20:36.086Z,83.20
2018-12-03T18:23:04.795Z,82.90
2018-12-03T18:25:33.503Z,82.90
2018-12-03T18:28:02.222Z,82.90
2018-12-03T18:30:30.898Z,83.00
2018-12-03T18:32:59.593Z,83.20
2018-12-03T18:35:28.308Z,83.10
2018-12-03T18:37:57.057Z,83.20
2018-12-03T18:40:25.756Z,83.00
2018-12-03T18:42:54.548Z,82.90
2018-12-03T18:45:23.260Z,83.00
2018-12-03T18:47:51.969Z,83.00
2018-12-03T18:50:25.819Z,82.50
2018-12-03T18:52:54.921Z,82.50
2018-12-03T18:55:23.627Z,82.80
2018-12-03T18:57:56.096Z,82.90
2018-12-03T19:00:24.968Z,82.80
2018-12-03T19:02:53.693Z,83.10
2018-12-03T19:05:22.392Z,83.30
2018-12-03T19:07:51.177Z,83.70
2018-12-03T19:10:19.873Z,83.40
2018-12-03T19:12:48.578Z,83.70
2018-12-03T19:15:17.340Z,83.90
2018-12-03T19:17:46.136Z,84.00
2018-12-03T19:20:14.824Z,83.90
2018-12-03T19:22:43.516Z,83.60
2018-12-03T19:25:12.221Z,83.40
2018-12-03T19:27:40.965Z,83.40
2018-12-03T19:30:11.997Z,83.20
2018-12-03T19:32:40.705Z,83.00
2018-12-03T19:35:15.166Z,83.00
2018-12-03T19:37:43.873Z,83.10
2018-12-03T19:40:12.569Z,83.30
2018-12-03T19:42:41.281Z,83.10
2018-12-03T19:45:09.972Z,83.30
2018-12-03T19:47:38.681Z,83.40
2018-12-03T19:50:09.466Z,83.40
2018-12-03T19:52:39.164Z,83.40
2018-12-03T19:55:10.124Z,83.80
2018-12-03T19:57:39.053Z,83.90
2018-12-03T20:00:10.893Z,83.90
2018-12-03T20:02:39.598Z,83.80
2018-12-03T20:05:13.746Z,83.80
2018-12-03T20:07:42.469Z,83.50
2018-12-03T20:10:11.158Z,83.40
2018-12-03T20:12:39.870Z,83.60
2018-12-03T20:15:09.168Z,83.70
2018-12-03T20:17:39.899Z,83.50
2018-12-03T20:20:11.651Z,83.60
2018-12-03T20:22:48.220Z,83.70
2018-12-03T20:25:19.980Z,83.90
2018-12-03T20:27:54.336Z,84.30
2018-12-03T20:30:34.666Z,85.10
2018-12-03T20:33:10.504Z,85.00
2018-12-03T20:35:50.728Z,85.80
2018-12-03T20:38:26.945Z,86.00
2018-12-03T20:41:02.590Z,85.90
2018-12-03T20:43:32.181Z,86.50
2018-12-03T20:46:09.169Z,86.60
2018-12-03T20:50:47.978Z,87.10
2018-12-03T20:53:21.312Z,87.80
2018-12-03T20:55:50.026Z,87.90
2018-12-03T20:58:18.688Z,88.00
2018-12-03T21:00:47.572Z,87.60
2018-12-03T21:03:16.281Z,87.00
2018-12-03T21:05:44.952Z,87.70
2018-12-03T21:08:13.616Z,88.70
2018-12-03T21:10:42.843Z,88.60
2018-12-03T21:13:11.518Z,88.50
2018-12-03T21:16:06.637Z,88.90
2018-12-03T21:18:35.369Z,88.70
2018-12-03T21:21:06.397Z,87.40
2018-12-03T21:23:35.230Z,88.20
2018-12-03T21:26:04.209Z,86.70
2018-12-03T21:28:33.032Z,87.50
2018-12-03T21:31:01.943Z,87.40
2018-12-03T21:33:30.672Z,87.10
2018-12-03T21:35:59.504Z,87.20
2018-12-03T21:38:28.275Z,87.00
2018-12-03T21:40:57.040Z,87.10
2018-12-03T21:43:25.863Z,86.80
2018-12-03T21:45:54.674Z,86.50
2018-12-03T21:48:23.546Z,86.60
2018-12-03T21:50:52.437Z,86.40
2018-12-03T21:53:21.148Z,86.30
2018-12-03T21:55:49.804Z,86.40
2018-12-03T21:58:18.480Z,87.10
2018-12-03T22:00:47.297Z,88.90
2018-12-03T22:03:16.068Z,89.10
2018-12-03T22:05:44.997Z,86.70
2018-12-03T22:08:13.799Z,86.00
2018-12-03T22:10:42.593Z,87.30
2018-12-03T22:13:11.301Z,86.80
2018-12-03T22:15:40.032Z,87.00
2018-12-03T22:18:08.889Z,87.10
2018-12-03T22:20:37.879Z,87.00
2018-12-03T22:23:06.817Z,87.90
2018-12-03T22:25:35.532Z,87.50
2018-12-03T22:28:04.366Z,87.80
2018-12-03T22:30:33.217Z,87.70
2018-12-03T22:33:01.980Z,87.90
2018-12-03T22:35:30.912Z,86.30
2018-12-03T22:37:59.752Z,87.40
2018-12-03T22:40:28.467Z,88.20
2018-12-03T22:42:57.301Z,88.50
2018-12-03T22:45:26.159Z,87.70
2018-12-03T22:47:54.841Z,88.10
2018-12-03T22:50:23.764Z,88.50
2018-12-03T22:52:52.441Z,88.10
2018-12-03T22:55:21.317Z,88.40
2018-12-03T22:57:50.044Z,88.70
2018-12-03T23:00:25.285Z,88.20
2018-12-03T23:02:56.268Z,87.80
2018-12-03T23:05:24.991Z,87.70
2018-12-03T23:07:53.778Z,88.20
2018-12-03T23:10:22.496Z,87.30
2018-12-03T23:12:51.326Z,87.30
2018-12-03T23:15:20.022Z,87.60
2018-12-03T23:17:48.667Z,86.80
2018-12-03T23:20:17.338Z,86.60
2018-12-03T23:22:46.061Z,86.60
2018-12-03T23:25:14.756Z,87.10
2018-12-03T23:27:43.534Z,87.10
2018-12-03T23:30:12.331Z,86.90
2018-12-03T23:32:41.127Z,86.20
2018-12-03T23:35:09.906Z,86.20
2018-12-03T23:37:38.615Z,85.60
2018-12-03T23:40:07.524Z,84.80
2018-12-03T23:42:36.404Z,85.30
2018-12-03T23:45:05.383Z,84.60
2018-12-03T23:47:34.111Z,85.40
2018-12-03T23:50:02.985Z,85.30
2018-12-03T23:52:31.762Z,84.90
2018-12-03T23:55:00.474Z,85.20
2018-12-03T23:57:29.229Z,85.00
2018-12-03T23:59:58.038Z,84.80
